Time;durP1;ratioP1;P1;durP2;ratioP2;P2;SDS_P1;SDS_P2;PMS_P1;PMS_P2;Temp;Humidity;BMP_temperature;BMP_pressure;BME280_temperature;BME280_humidity;BME280_pressure;Samples;Min_cycle;Max_cycle;Signal;HPM_P1;HPM_P2
2023/05/26 00:02:24;;;;;;;13.82;3.75;;;11.80;60.40;;;;;;5113417;28;20037;-69
2023/05/26 00:04:50;;;;;;;13.63;3.58;;;11.80;60.40;;;;;;5095011;28;20048;-69
2023/05/26 00:07:16;;;;;;;16.95;4.38;;;11.70;60.50;;;;;;5090562;28;20032;-69
2023/05/26 00:09:42;;;;;;;11.57;3.10;;;11.70;60.50;;;;;;5116343;28;20075;-69
2023/05/26 00:12:08;;;;;;;13.38;3.58;;;11.70;60.60;;;;;;5093213;28;20395;-69
2023/05/26 00:14:34;;;;;;;16.52;4.60;;;11.70;60.50;;;;;;5090784;28;20078;-69
2023/05/26 00:17:02;;;;;;;14.88;4.32;;;11.70;60.50;;;;;;5099940;28;20115;-69
2023/05/26 00:19:28;;;;;;;13.55;3.72;;;11.70;60.60;;;;;;5093056;28;20074;-69
2023/05/26 00:21:54;;;;;;;12.55;3.70;;;11.70;60.60;;;;;;5094560;28;20079;-69
2023/05/26 00:24:19;;;;;;;12.18;3.40;;;11.60;60.60;;;;;;5077707;28;20044;-69
2023/05/26 00:26:45;;;;;;;14.60;3.88;;;11.60;60.70;;;;;;5120380;27;20048;-69
2023/05/26 00:29:14;;;;;;;11.63;3.63;;;11.60;60.80;;;;;;5075247;28;20472;-69
2023/05/26 00:31:40;;;;;;;11.70;3.38;;;11.60;60.80;;;;;;5094756;28;20399;-69
2023/05/26 00:34:05;;;;;;;17.05;4.10;;;11.60;60.80;;;;;;5122417;27;20051;-69
2023/05/26 00:36:31;;;;;;;14.00;4.68;;;11.50;60.80;;;;;;5077582;28;20372;-69
2023/05/26 00:38:57;;;;;;;12.35;3.95;;;11.50;60.70;;;;;;5094059;28;20086;-69
2023/05/26 00:41:22;;;;;;;11.15;3.65;;;11.50;60.70;;;;;;5094539;28;20043;-69
2023/05/26 00:43:48;;;;;;;12.38;3.20;;;11.50;60.80;;;;;;5077313;28;20076;-69
2023/05/26 00:46:14;;;;;;;18.90;5.15;;;11.50;60.80;;;;;;5113618;27;20120;-69
2023/05/26 00:48:39;;;;;;;16.25;5.38;;;11.50;60.80;;;;;;5094332;28;20115;-70
2023/05/26 00:51:06;;;;;;;11.52;3.40;;;11.50;60.80;;;;;;5096605;28;20052;-69
2023/05/26 00:53:32;;;;;;;12.48;3.67;;;11.40;60.80;;;;;;5076981;28;20040;-69
2023/05/26 00:55:58;;;;;;;12.77;3.70;;;11.40;60.90;;;;;;5076814;28;20040;-69
2023/05/26 00:58:24;;;;;;;11.20;3.08;;;11.40;60.90;;;;;;5093725;28;20036;-69
2023/05/26 01:00:50;;;;;;;12.73;3.22;;;11.40;60.90;;;;;;5093847;28;20040;-69
2023/05/26 01:03:16;;;;;;;11.23;3.72;;;11.40;60.90;;;;;;5111476;27;20050;-70
2023/05/26 01:05:42;;;;;;;11.05;2.97;;;11.40;60.90;;;;;;5117004;27;20071;-69
2023/05/26 01:08:08;;;;;;;12.98;3.47;;;11.30;60.90;;;;;;5076798;28;20075;-69
2023/05/26 01:10:34;;;;;;;11.13;4.07;;;11.30;61.00;;;;;;5093777;28;20036;-69
2023/05/26 01:13:05;;;;;;;13.35;3.75;;;11.30;61.00;;;;;;5093575;28;20047;-69
2023/05/26 01:15:36;;;;;;;12.43;3.78;;;11.30;61.00;;;;;;5093720;28;20044;-69
2023/05/26 01:18:05;;;;;;;13.85;3.85;;;11.30;61.10;;;;;;5093306;28;20480;-69
2023/05/26 01:20:40;;;;;;;11.63;3.38;;;11.20;61.00;;;;;;5093750;28;20047;-69
2023/05/26 01:23:12;;;;;;;13.35;3.63;;;11.20;61.10;;;;;;5115605;27;20449;-69
2023/05/26 01:25:55;;;;;;;11.32;3.58;;;11.20;61.10;;;;;;5116358;27;20043;-69
2023/05/26 01:28:24;;;;;;;10.43;3.70;;;11.20;61.10;;;;;;5091890;28;20036;-69
2023/05/26 01:30:50;;;;;;;13.30;3.20;;;11.10;61.10;;;;;;5093399;28;20051;-69
2023/05/26 01:33:16;;;;;;;11.88;3.45;;;11.20;61.20;;;;;;5126143;27;20044;-69
2023/05/26 01:35:42;;;;;;;11.65;2.78;;;11.10;61.20;;;;;;5093387;28;20104;-69
2023/05/26 01:38:08;;;;;;;11.25;3.33;;;11.10;61.20;;;;;;5093939;28;20032;-70
2023/05/26 01:40:35;;;;;;;10.55;3.65;;;11.10;61.20;;;;;;5094234;28;20058;-69
2023/05/26 01:43:08;;;;;;;13.00;3.42;;;11.10;61.30;;;;;;5113208;27;20472;-69
2023/05/26 01:45:58;;;;;;;11.90;3.85;;;11.00;61.20;;;;;;5092968;28;20119;-69
2023/05/26 01:48:24;;;;;;;11.80;3.10;;;11.00;61.10;;;;;;5077771;28;20040;-68
2023/05/26 01:50:56;;;;;;;12.90;3.78;;;11.00;61.20;;;;;;5093220;28;20077;-68
2023/05/26 01:53:26;;;;;;;10.00;3.78;;;11.00;61.70;;;;;;5117520;27;20121;-68
2023/05/26 01:55:56;;;;;;;10.30;3.15;;;11.00;61.30;;;;;;5091020;28;20039;-69
2023/05/26 01:58:24;;;;;;;9.52;2.83;;;11.00;61.30;;;;;;5120138;27;20507;-69
2023/05/26 02:00:52;;;;;;;9.85;3.15;;;10.90;61.30;;;;;;5110603;27;20044;-69
2023/05/26 02:03:18;;;;;;;12.93;2.88;;;10.90;61.40;;;;;;5122845;27;20024;-69
2023/05/26 02:05:44;;;;;;;16.02;4.07;;;10.90;61.50;;;;;;5074690;28;20468;-69
2023/05/26 02:08:11;;;;;;;8.73;3.17;;;10.90;61.40;;;;;;5117916;27;20032;-69
2023/05/26 02:10:37;;;;;;;14.73;3.03;;;10.90;61.50;;;;;;5075204;28;20486;-69
2023/05/26 02:13:03;;;;;;;11.63;3.25;;;10.80;61.50;;;;;;5092099;28;20048;-69
2023/05/26 02:15:29;;;;;;;11.20;3.80;;;10.80;61.40;;;;;;5092170;28;20048;-69
2023/05/26 02:17:57;;;;;;;12.30;3.05;;;10.80;61.50;;;;;;5075016;28;20043;-70
2023/05/26 02:20:26;;;;;;;12.75;2.97;;;10.80;61.50;;;;;;5075476;28;20087;-70
2023/05/26 02:22:52;;;;;;;13.10;2.95;;;10.70;61.40;;;;;;5121222;27;20066;-69
2023/05/26 02:25:18;;;;;;;13.00;3.70;;;10.70;61.50;;;;;;5092143;28;20036;-69
2023/05/26 02:27:43;;;;;;;13.32;3.92;;;10.70;61.60;;;;;;5075296;28;20068;-69
2023/05/26 02:30:10;;;;;;;9.30;3.22;;;10.70;61.60;;;;;;5092006;28;20057;-69
2023/05/26 02:32:36;;;;;;;10.95;3.05;;;10.70;61.70;;;;;;5091930;28;20044;-70
2023/05/26 02:35:03;;;;;;;10.25;3.45;;;10.60;61.70;;;;;;5116783;27;20101;-69
2023/05/26 02:37:30;;;;;;;9.75;3.30;;;10.60;61.70;;;;;;5092069;28;20040;-69
2023/05/26 02:39:56;;;;;;;11.07;3.00;;;10.60;61.90;;;;;;5122333;27;20032;-69
2023/05/26 02:42:23;;;;;;;13.07;4.18;;;10.60;62.00;;;;;;5122206;27;20532;-69
2023/05/26 02:44:50;;;;;;;15.70;3.83;;;10.60;62.00;;;;;;5117302;27;20048;-69
2023/05/26 02:47:15;;;;;;;11.73;3.80;;;10.50;62.00;;;;;;5114330;27;20102;-69
2023/05/26 02:49:42;;;;;;;12.13;2.85;;;10.50;62.10;;;;;;5091916;28;20437;-69
2023/05/26 02:52:08;;;;;;;9.32;2.90;;;10.50;62.10;;;;;;5091898;28;20047;-69
2023/05/26 02:54:34;;;;;;;9.45;3.25;;;10.50;62.10;;;;;;5091952;28;20044;-69
2023/05/26 02:56:59;;;;;;;10.48;2.95;;;10.50;62.10;;;;;;5074531;28;20127;-69
2023/05/26 02:59:25;;;;;;;13.57;3.70;;;10.50;62.20;;;;;;5074750;28;20044;-69
2023/05/26 03:01:51;;;;;;;8.18;2.97;;;10.40;62.10;;;;;;5091527;28;20040;-69
2023/05/26 03:04:17;;;;;;;11.45;3.72;;;10.40;62.10;;;;;;5074696;28;20028;-69
2023/05/26 03:06:43;;;;;;;11.30;3.15;;;10.40;62.60;;;;;;5093521;28;20036;-69
2023/05/26 03:09:09;;;;;;;12.70;3.92;;;10.40;62.30;;;;;;5119030;27;20040;-69
2023/05/26 03:11:34;;;;;;;12.52;3.50;;;10.40;62.30;;;;;;5074547;28;20048;-69
2023/05/26 03:14:00;;;;;;;10.85;3.67;;;10.40;62.40;;;;;;5057848;28;20098;-69
2023/05/26 03:16:27;;;;;;;12.77;3.60;;;10.30;62.30;;;;;;5090708;28;20039;-69
2023/05/26 03:18:53;;;;;;;10.82;2.83;;;10.30;62.30;;;;;;5122057;27;20100;-69
2023/05/26 03:21:19;;;;;;;14.48;3.22;;;10.30;62.40;;;;;;5071483;28;20051;-69
2023/05/26 03:23:44;;;;;;;9.73;2.95;;;10.30;62.40;;;;;;5075510;28;20032;-69
2023/05/26 03:26:11;;;;;;;10.48;3.35;;;10.30;62.40;;;;;;5115464;27;20024;-69
2023/05/26 03:28:37;;;;;;;9.90;3.13;;;10.30;62.50;;;;;;5110949;28;20040;-69
2023/05/26 03:31:03;;;;;;;16.20;4.03;;;10.30;62.40;;;;;;5119545;27;20113;-69
2023/05/26 03:33:31;;;;;;;15.88;3.80;;;10.30;62.50;;;;;;5074057;28;20093;-69
2023/05/26 03:36:00;;;;;;;13.57;3.78;;;10.20;62.50;;;;;;5090766;28;20036;-69
2023/05/26 03:38:26;;;;;;;9.20;3.22;;;10.20;62.50;;;;;;5111424;27;20040;-69
2023/05/26 03:40:52;;;;;;;10.48;3.20;;;10.20;62.50;;;;;;5120820;27;20067;-69
2023/05/26 03:43:18;;;;;;;11.05;2.92;;;10.20;62.50;;;;;;5119019;27;20068;-69
2023/05/26 03:45:44;;;;;;;11.23;3.47;;;10.10;62.50;;;;;;5073893;28;20040;-69
2023/05/26 03:48:12;;;;;;;10.30;3.45;;;10.20;62.50;;;;;;5118271;27;20116;-69
2023/05/26 03:50:43;;;;;;;15.07;3.75;;;10.10;62.50;;;;;;5118045;27;20040;-69
2023/05/26 03:53:10;;;;;;;12.38;3.13;;;10.10;62.60;;;;;;5071830;28;20104;-69
2023/05/26 03:55:36;;;;;;;14.73;3.50;;;10.10;62.70;;;;;;5090560;28;20113;-69
2023/05/26 03:58:03;;;;;;;11.93;3.47;;;10.10;62.80;;;;;;5109723;28;20036;-69
2023/05/26 04:00:31;;;;;;;11.48;2.85;;;10.10;62.90;;;;;;5090781;28;20047;-69
2023/05/26 04:02:58;;;;;;;8.02;2.95;;;10.10;62.90;;;;;;5093360;28;20044;-69
2023/05/26 04:05:24;;;;;;;7.32;2.90;;;10.10;63.00;;;;;;5073521;28;20036;-69
2023/05/26 04:07:50;;;;;;;10.40;3.47;;;10.10;63.00;;;;;;5091991;28;20148;-69
2023/05/26 04:10:16;;;;;;;12.45;3.13;;;10.10;63.00;;;;;;5073827;28;20032;-69
2023/05/26 04:12:42;;;;;;;13.77;4.28;;;10.10;63.10;;;;;;5110578;28;20058;-69
2023/05/26 04:15:14;;;;;;;15.90;4.22;;;10.00;63.00;;;;;;5090665;28;20128;-69
2023/05/26 04:17:41;;;;;;;11.07;3.28;;;10.00;63.10;;;;;;5073518;28;20725;-69
2023/05/26 04:20:10;;;;;;;13.95;4.05;;;10.00;63.30;;;;;;5099025;28;20040;-69
2023/05/26 04:22:37;;;;;;;18.85;4.38;;;10.00;63.30;;;;;;5073877;28;20071;-69
2023/05/26 04:25:03;;;;;;;12.55;3.85;;;10.00;63.40;;;;;;5116238;28;20040;-69
2023/05/26 04:27:29;;;;;;;12.55;4.45;;;10.00;63.50;;;;;;5090290;28;20040;-69
2023/05/26 04:29:58;;;;;;;13.85;4.07;;;10.00;63.60;;;;;;5091446;28;20032;-69
2023/05/26 04:32:25;;;;;;;11.93;4.03;;;10.00;63.70;;;;;;5090291;28;20114;-70
2023/05/26 04:34:50;;;;;;;18.13;4.55;;;10.00;63.70;;;;;;5117935;27;20047;-69
2023/05/26 04:37:16;;;;;;;13.70;3.15;;;10.00;63.80;;;;;;5089950;28;20051;-69
2023/05/26 04:39:42;;;;;;;13.98;3.58;;;10.00;63.90;;;;;;5087635;28;20059;-69
2023/05/26 04:42:08;;;;;;;13.05;3.80;;;10.10;64.10;;;;;;5110926;28;20102;-69
2023/05/26 04:44:36;;;;;;;16.02;4.40;;;10.10;64.20;;;;;;5056436;28;20052;-69
2023/05/26 04:47:03;;;;;;;16.92;4.57;;;10.00;64.30;;;;;;5073678;28;20051;-69
2023/05/26 04:49:29;;;;;;;13.05;3.40;;;10.10;64.50;;;;;;5122592;27;20036;-69
2023/05/26 04:51:59;;;;;;;15.23;3.33;;;10.10;64.60;;;;;;5056838;28;20047;-69
2023/05/26 04:54:25;;;;;;;14.57;3.60;;;10.10;64.80;;;;;;5073078;28;20106;-70
2023/05/26 04:56:52;;;;;;;14.90;4.05;;;10.10;64.90;;;;;;5090502;28;20040;-69
2023/05/26 04:59:21;;;;;;;16.27;4.45;;;10.10;65.10;;;;;;5086970;28;20035;-69
2023/05/26 05:01:47;;;;;;;20.42;4.35;;;10.10;65.40;;;;;;5074344;28;20048;-70
2023/05/26 05:04:13;;;;;;;19.50;4.20;;;10.20;65.80;;;;;;5093480;28;20040;-70
2023/05/26 05:06:40;;;;;;;14.55;4.25;;;10.20;66.60;;;;;;5093724;28;20383;-69
2023/05/26 05:09:05;;;;;;;15.52;4.70;;;10.30;67.40;;;;;;5076753;28;20044;-69
2023/05/26 05:11:31;;;;;;;16.23;4.20;;;10.40;67.90;;;;;;5093686;28;20040;-69
2023/05/26 05:13:57;;;;;;;16.20;4.38;;;10.60;68.30;;;;;;5117017;27;20507;-69
2023/05/26 05:16:23;;;;;;;17.25;4.43;;;10.90;68.20;;;;;;5119258;27;20492;-69
2023/05/26 05:18:49;;;;;;;18.50;4.65;;;11.20;67.90;;;;;;5076854;28;20047;-69
2023/05/26 05:21:14;;;;;;;15.98;4.55;;;11.50;67.40;;;;;;5117449;27;20055;-69
2023/05/26 05:23:40;;;;;;;17.40;5.00;;;11.90;67.00;;;;;;5121218;27;20024;-69
2023/05/26 05:26:06;;;;;;;13.93;4.25;;;12.20;66.10;;;;;;5074353;28;20048;-69
2023/05/26 05:28:32;;;;;;;15.88;3.97;;;12.60;65.40;;;;;;5112940;27;20109;-69
2023/05/26 05:30:57;;;;;;;14.05;3.90;;;12.90;65.00;;;;;;5076571;28;20066;-69
2023/05/26 05:33:23;;;;;;;23.23;5.38;;;13.30;64.40;;;;;;5093169;28;20044;-69
2023/05/26 05:35:49;;;;;;;15.35;4.82;;;13.60;62.90;;;;;;5092996;28;20047;-69
2023/05/26 05:38:14;;;;;;;17.38;4.50;;;13.80;61.60;;;;;;5125345;27;20071;-69
2023/05/26 05:40:40;;;;;;;17.55;4.57;;;14.00;61.20;;;;;;5125241;27;20055;-69
2023/05/26 05:43:06;;;;;;;16.55;4.25;;;14.20;60.70;;;;;;5124714;27;20154;-69
2023/05/26 05:45:32;;;;;;;15.90;5.25;;;14.50;60.30;;;;;;5093115;28;20040;-69
2023/05/26 05:47:58;;;;;;;14.00;4.75;;;14.70;59.30;;;;;;5075517;28;20040;-69
2023/05/26 05:50:24;;;;;;;16.45;5.20;;;15.00;59.00;;;;;;5092991;28;20119;-69
2023/05/26 05:52:49;;;;;;;12.77;4.47;;;15.30;58.40;;;;;;5120426;27;20055;-69
2023/05/26 05:55:15;;;;;;;15.60;4.40;;;15.60;58.10;;;;;;5092913;28;20048;-69
2023/05/26 05:57:44;;;;;;;16.25;4.70;;;15.80;57.30;;;;;;5122069;27;20109;-69
2023/05/26 06:00:11;;;;;;;14.82;4.80;;;16.10;56.60;;;;;;5092808;28;20064;-69
2023/05/26 06:02:37;;;;;;;16.05;4.68;;;16.30;56.20;;;;;;5075523;28;20043;-69
2023/05/26 06:05:03;;;;;;;15.45;3.85;;;16.60;55.30;;;;;;5075740;28;20085;-69
2023/05/26 06:07:29;;;;;;;17.00;4.95;;;16.80;55.10;;;;;;5092536;28;20559;-69
2023/05/26 06:09:57;;;;;;;23.75;5.07;;;17.10;54.80;;;;;;5092923;28;21675;-70
2023/05/26 06:12:23;;;;;;;13.20;3.95;;;17.30;53.60;;;;;;5073359;28;20097;-70
2023/05/26 06:14:49;;;;;;;15.23;4.78;;;17.40;52.90;;;;;;5120991;27;20047;-70
2023/05/26 06:17:14;;;;;;;18.20;4.82;;;17.50;52.50;;;;;;5091902;28;20063;-69
2023/05/26 06:19:40;;;;;;;13.93;4.32;;;17.70;52.40;;;;;;5092561;28;20139;-69
2023/05/26 06:22:06;;;;;;;13.32;4.13;;;17.80;52.10;;;;;;5092032;28;20048;-69
2023/05/26 06:24:31;;;;;;;15.68;4.32;;;18.00;51.50;;;;;;5092350;28;20050;-69
2023/05/26 06:26:57;;;;;;;15.48;4.72;;;18.20;51.20;;;;;;5118672;27;20109;-70
2023/05/26 06:29:23;;;;;;;16.38;4.75;;;18.30;50.40;;;;;;5073573;28;20109;-70
2023/05/26 06:31:48;;;;;;;13.65;4.70;;;18.50;50.00;;;;;;5113655;27;20047;-69
2023/05/26 06:34:14;;;;;;;13.40;4.63;;;18.60;49.70;;;;;;5075094;28;20043;-69
2023/05/26 06:36:40;;;;;;;15.35;4.05;;;18.70;49.40;;;;;;5092143;28;20487;-69
2023/05/26 06:39:06;;;;;;;15.10;4.47;;;18.80;49.50;;;;;;5091985;28;20506;-70
2023/05/26 06:41:32;;;;;;;11.70;4.25;;;19.00;49.30;;;;;;5074918;28;20043;-70
2023/05/26 06:43:57;;;;;;;17.00;4.78;;;19.00;48.40;;;;;;5074695;28;20048;-70
2023/05/26 06:46:24;;;;;;;16.80;5.50;;;19.10;48.50;;;;;;5117432;27;20144;-70
2023/05/26 06:48:49;;;;;;;18.83;6.05;;;19.00;48.40;;;;;;5107867;27;20037;-70
2023/05/26 06:51:15;;;;;;;13.82;4.53;;;19.00;47.20;;;;;;5091388;28;20093;-70
2023/05/26 06:53:44;;;;;;;11.27;4.20;;;19.10;47.00;;;;;;5091599;28;20039;-69
2023/05/26 06:56:09;;;;;;;12.18;3.75;;;19.00;47.50;;;;;;5075087;28;20679;-70
2023/05/26 06:58:35;;;;;;;15.32;3.75;;;19.10;46.70;;;;;;5113075;27;20052;-70
2023/05/26 07:01:02;;;;;;;17.83;4.53;;;19.10;46.40;;;;;;5075937;28;20064;-70
2023/05/26 07:03:29;;;;;;;16.27;4.22;;;19.20;46.20;;;;;;5124400;27;20055;-70
2023/05/26 07:05:55;;;;;;;16.50;4.45;;;19.10;45.90;;;;;;5092204;28;20036;-69
2023/05/26 07:08:22;;;;;;;15.63;4.70;;;19.00;46.10;;;;;;5126538;27;20049;-69
2023/05/26 07:10:48;;;;;;;16.35;4.05;;;19.10;46.60;;;;;;5126459;27;20036;-70
2023/05/26 07:13:14;;;;;;;17.15;4.28;;;19.10;45.80;;;;;;5137352;27;20050;-70
2023/05/26 07:15:41;;;;;;;12.00;4.10;;;19.10;45.00;;;;;;5091256;28;20554;-70
2023/05/26 07:18:07;;;;;;;12.68;4.43;;;19.00;44.90;;;;;;5097763;28;20083;-70
2023/05/26 07:20:33;;;;;;;15.13;4.18;;;19.00;45.30;;;;;;5106096;28;20125;-69
2023/05/26 07:22:59;;;;;;;15.48;4.57;;;19.10;45.80;;;;;;5115184;27;20551;-69
2023/05/26 07:25:25;;;;;;;13.73;4.22;;;19.10;45.80;;;;;;5125330;27;20109;-69
2023/05/26 07:27:51;;;;;;;17.83;5.63;;;19.20;46.30;;;;;;5126505;27;20127;-69
2023/05/26 07:30:17;;;;;;;17.50;4.53;;;19.30;46.10;;;;;;5121807;27;20037;-69
2023/05/26 07:32:43;;;;;;;11.73;4.00;;;19.40;45.50;;;;;;5105672;28;20044;-70
2023/05/26 07:35:09;;;;;;;17.20;5.03;;;19.50;44.70;;;;;;5071733;28;20044;-70
2023/05/26 07:37:35;;;;;;;15.25;4.07;;;19.60;44.80;;;;;;5072033;28;20094;-70
2023/05/26 07:40:02;;;;;;;12.18;4.60;;;19.70;43.90;;;;;;5085315;28;20546;-70
2023/05/26 07:42:28;;;;;;;13.80;5.50;;;19.70;42.80;;;;;;5125899;27;20127;-70
2023/05/26 07:44:55;;;;;;;13.20;4.25;;;19.60;42.80;;;;;;5071227;28;20130;-70
2023/05/26 07:47:21;;;;;;;11.95;3.63;;;19.60;42.60;;;;;;5075022;28;20040;-70
2023/05/26 07:49:47;;;;;;;13.07;3.92;;;19.40;42.80;;;;;;5091770;28;20479;-70
2023/05/26 07:52:13;;;;;;;13.30;3.97;;;19.40;42.90;;;;;;5075265;28;20043;-70
2023/05/26 07:54:40;;;;;;;11.60;4.20;;;19.40;43.30;;;;;;5075144;28;20526;-70
2023/05/26 07:57:06;;;;;;;11.30;3.63;;;19.50;43.40;;;;;;5124293;27;20055;-70
2023/05/26 07:59:31;;;;;;;15.82;4.40;;;19.50;43.50;;;;;;5125920;28;20563;-69
2023/05/26 08:01:57;;;;;;;14.00;4.47;;;19.60;43.30;;;;;;5125688;28;20093;-69
2023/05/26 08:04:23;;;;;;;14.43;4.22;;;19.70;43.40;;;;;;5091413;28;20082;-70
2023/05/26 08:06:49;;;;;;;18.38;5.15;;;19.90;42.70;;;;;;5091740;28;20036;-70
2023/05/26 08:09:15;;;;;;;13.98;4.15;;;19.90;42.80;;;;;;5125760;28;20484;-70
2023/05/26 08:11:40;;;;;;;11.20;3.35;;;20.00;41.70;;;;;;5075074;28;20498;-70
2023/05/26 08:14:06;;;;;;;13.38;4.38;;;19.90;41.60;;;;;;5091580;28;20368;-70
2023/05/26 08:16:32;;;;;;;13.63;3.78;;;19.90;42.60;;;;;;5091707;28;20063;-70
2023/05/26 08:18:57;;;;;;;13.52;3.92;;;19.90;42.40;;;;;;5074561;28;20048;-69
2023/05/26 08:21:23;;;;;;;19.83;4.93;;;20.00;41.70;;;;;;5125364;28;20043;-70
2023/05/26 08:23:49;;;;;;;12.00;4.45;;;20.00;41.90;;;;;;5119839;28;20044;-70
2023/05/26 08:26:15;;;;;;;14.60;4.05;;;20.00;42.10;;;;;;5071482;28;20357;-69
2023/05/26 08:28:41;;;;;;;10.32;3.30;;;20.10;41.70;;;;;;5071353;28;20037;-69
2023/05/26 08:31:06;;;;;;;10.50;3.53;;;20.10;41.50;;;;;;5072527;28;20036;-69
2023/05/26 08:33:32;;;;;;;15.05;3.92;;;20.20;41.40;;;;;;5073137;28;20116;-69
2023/05/26 08:35:58;;;;;;;15.77;3.95;;;20.20;41.50;;;;;;5092198;28;20024;-69
2023/05/26 08:38:24;;;;;;;11.63;4.05;;;20.40;40.90;;;;;;5078165;28;20101;-69
2023/05/26 08:40:55;;;;;;;12.23;3.63;;;20.40;40.80;;;;;;5129563;27;20644;-69
2023/05/26 08:43:36;;;;;;;16.00;4.13;;;20.50;40.60;;;;;;5095053;28;20088;-69
2023/05/26 08:46:03;;;;;;;13.23;3.70;;;20.60;40.90;;;;;;5129704;27;20435;-69
2023/05/26 08:48:29;;;;;;;14.32;4.70;;;20.70;40.80;;;;;;5129330;27;20114;-69
2023/05/26 08:50:57;;;;;;;12.77;4.43;;;20.70;40.60;;;;;;5110464;28;20048;-69
2023/05/26 08:53:24;;;;;;;20.80;6.18;;;20.80;40.20;;;;;;5128775;27;20048;-69
2023/05/26 08:55:50;;;;;;;13.27;5.10;;;20.80;39.60;;;;;;5129125;27;20044;-70
2023/05/26 08:58:18;;;;;;;9.50;3.55;;;20.90;39.20;;;;;;5129268;27;20124;-69
2023/05/26 09:00:45;;;;;;;13.82;3.72;;;20.90;38.80;;;;;;5129341;27;20079;-69
2023/05/26 09:03:11;;;;;;;9.98;3.42;;;20.80;38.40;;;;;;5077867;28;20075;-69
2023/05/26 09:05:37;;;;;;;16.08;4.53;;;20.70;38.50;;;;;;5128761;27;20051;-69
2023/05/26 09:08:04;;;;;;;9.38;3.25;;;20.70;38.70;;;;;;5117928;27;20395;-69
2023/05/26 09:10:31;;;;;;;14.15;4.28;;;20.70;38.20;;;;;;5094340;28;20040;-70
2023/05/26 09:13:04;;;;;;;8.75;3.20;;;20.60;37.90;;;;;;5094112;28;20097;-66
2023/05/26 09:15:30;;;;;;;15.43;3.67;;;20.60;38.00;;;;;;5094613;28;20052;-65
2023/05/26 09:18:22;;;;;;;11.50;3.45;;;20.60;38.90;;;;;;5094490;28;20127;-66
2023/05/26 09:20:49;;;;;;;9.32;2.97;;;20.60;38.20;;;;;;5090675;28;20384;-67
2023/05/26 09:23:17;;;;;;;12.85;4.07;;;20.60;38.30;;;;;;5076891;28;20085;-67
2023/05/26 09:25:45;;;;;;;8.57;3.38;;;20.50;38.20;;;;;;5128540;27;20044;-65
2023/05/26 09:28:12;;;;;;;10.25;2.83;;;20.40;38.00;;;;;;5128648;27;20036;-65
2023/05/26 09:30:44;;;;;;;15.07;3.13;;;20.30;37.90;;;;;;5077670;28;20036;-65
2023/05/26 09:33:19;;;;;;;13.43;3.72;;;20.20;37.10;;;;;;5111909;27;20433;-65
2023/05/26 09:35:47;;;;;;;11.55;3.42;;;20.10;37.70;;;;;;5094140;28;20035;-69
2023/05/26 09:38:15;;;;;;;11.30;3.83;;;20.10;38.60;;;;;;5128409;27;20048;-65
2023/05/26 09:40:48;;;;;;;12.13;3.35;;;20.10;38.20;;;;;;5094240;28;20080;-65
2023/05/26 09:43:18;;;;;;;11.57;3.67;;;20.20;38.00;;;;;;5093708;28;20087;-65
2023/05/26 09:45:44;;;;;;;13.45;4.32;;;20.30;37.80;;;;;;5093662;28;20059;-65
2023/05/26 09:48:10;;;;;;;11.55;3.33;;;20.40;38.30;;;;;;5093311;28;20039;-65
2023/05/26 09:50:38;;;;;;;14.40;3.78;;;20.50;37.60;;;;;;5093525;28;20043;-65
2023/05/26 09:53:11;;;;;;;13.88;3.65;;;20.60;38.30;;;;;;5093821;28;20040;-65
2023/05/26 09:55:39;;;;;;;9.88;3.13;;;20.70;38.50;;;;;;5095074;28;20040;-65
2023/05/26 09:58:06;;;;;;;12.18;3.80;;;20.70;37.40;;;;;;5077484;28;20040;-65
2023/05/26 10:00:36;;;;;;;9.63;2.95;;;20.70;37.20;;;;;;5111685;27;20424;-65
2023/05/26 10:03:07;;;;;;;8.93;3.28;;;20.60;36.80;;;;;;5110996;27;20419;-65
2023/05/26 10:05:34;;;;;;;11.93;3.22;;;20.60;37.20;;;;;;5111405;27;20368;-65
2023/05/26 10:08:00;;;;;;;11.65;3.20;;;20.70;38.20;;;;;;5077299;28;20043;-65
2023/05/26 10:10:29;;;;;;;13.43;4.03;;;20.70;38.20;;;;;;5111480;27;20483;-66
2023/05/26 10:12:54;;;;;;;12.95;3.83;;;20.90;37.70;;;;;;5077076;28;20056;-65
2023/05/26 10:15:20;;;;;;;8.20;3.45;;;20.90;38.20;;;;;;5077112;28;20088;-65
2023/05/26 10:17:46;;;;;;;12.80;3.30;;;21.00;38.40;;;;;;5077157;28;20047;-65
2023/05/26 10:20:13;;;;;;;13.23;3.40;;;21.00;37.60;;;;;;5110793;27;20045;-65
2023/05/26 10:22:57;;;;;;;10.50;3.13;;;21.00;37.60;;;;;;5110949;27;20048;-65
2023/05/26 10:25:28;;;;;;;9.50;2.95;;;21.00;37.70;;;;;;5110624;27;20048;-66
2023/05/26 10:28:15;;;;;;;12.05;3.15;;;21.10;37.50;;;;;;5109805;27;20032;-66
2023/05/26 10:30:42;;;;;;;12.25;2.92;;;21.10;37.40;;;;;;5094223;28;20042;-67
2023/05/26 10:33:09;;;;;;;10.77;3.45;;;21.20;36.60;;;;;;5110824;27;20060;-66
2023/05/26 10:35:35;;;;;;;9.45;2.85;;;21.20;36.50;;;;;;5110499;27;20086;-67
2023/05/26 10:38:03;;;;;;;9.70;2.70;;;21.20;36.10;;;;;;5110472;27;20071;-66
2023/05/26 10:40:50;;;;;;;10.15;2.92;;;21.30;36.60;;;;;;5110243;27;20131;-66
2023/05/26 10:43:22;;;;;;;9.20;2.83;;;21.30;37.50;;;;;;5109681;27;20522;-67
2023/05/26 10:46:02;;;;;;;9.20;3.00;;;21.30;36.90;;;;;;5109663;27;20538;-66
2023/05/26 10:48:35;;;;;;;8.80;2.63;;;21.30;36.70;;;;;;5076550;28;20086;-66
2023/05/26 10:51:09;;;;;;;12.32;3.65;;;21.20;36.60;;;;;;5109028;27;20048;-66
2023/05/26 10:53:42;;;;;;;8.13;2.97;;;21.10;37.10;;;;;;5092931;28;20369;-66
2023/05/26 10:56:12;;;;;;;12.48;3.92;;;21.00;36.90;;;;;;5084347;28;20055;-66
2023/05/26 10:58:57;;;;;;;13.68;3.78;;;21.00;36.70;;;;;;5098634;28;20131;-65
2023/05/26 11:01:27;;;;;;;14.90;3.17;;;21.00;36.70;;;;;;5116097;27;20097;-65
2023/05/26 11:04:13;;;;;;;9.82;3.20;;;20.90;37.10;;;;;;5090796;28;20105;-66
2023/05/26 11:06:54;;;;;;;11.35;4.05;;;20.90;36.80;;;;;;5089279;28;20160;-66
2023/05/26 11:09:25;;;;;;;11.00;3.17;;;20.80;37.50;;;;;;5114797;27;20044;-66
2023/05/26 11:11:59;;;;;;;7.28;2.72;;;20.80;37.90;;;;;;5114690;27;20555;-66
2023/05/26 11:14:27;;;;;;;11.15;3.55;;;20.90;37.90;;;;;;5090244;28;20154;-66
2023/05/26 11:16:58;;;;;;;13.20;4.05;;;20.90;37.90;;;;;;5090926;28;20043;-66
2023/05/26 11:19:42;;;;;;;10.48;3.42;;;20.90;38.30;;;;;;5091507;28;20043;-66
2023/05/26 11:22:09;;;;;;;;;;;21.00;38.60;;;;;;5074095;28;20068;-66
2023/05/26 11:24:36;;;;;;;8.90;3.60;;;21.10;38.10;;;;;;5090878;28;19967;-67
2023/05/26 11:27:05;;;;;;;11.98;4.18;;;21.20;37.40;;;;;;5078212;28;20036;-67
2023/05/26 11:29:32;;;;;;;12.05;3.38;;;21.30;37.90;;;;;;5075851;28;20056;-67
2023/05/26 11:31:58;;;;;;;9.77;4.13;;;21.30;37.00;;;;;;5108450;27;20089;-67
2023/05/26 11:34:24;;;;;;;9.52;3.72;;;21.30;37.50;;;;;;5075985;28;20071;-67
2023/05/26 11:36:53;;;;;;;10.75;3.03;;;21.30;36.80;;;;;;5075950;28;20119;-67
2023/05/26 11:39:20;;;;;;;14.80;3.47;;;21.40;37.40;;;;;;5075801;28;20047;-67
2023/05/26 11:41:46;;;;;;;9.27;2.90;;;21.40;37.60;;;;;;5109094;27;20107;-67
2023/05/26 11:44:12;;;;;;;7.82;3.28;;;21.50;38.10;;;;;;5075584;28;20044;-67
2023/05/26 11:46:39;;;;;;;13.23;3.88;;;21.50;38.20;;;;;;5075305;28;20044;-67
2023/05/26 11:49:15;;;;;;;9.82;3.40;;;21.70;38.40;;;;;;5077231;28;20042;-66
2023/05/26 11:51:50;;;;;;;10.35;3.05;;;21.80;37.60;;;;;;5111658;27;20796;-67
2023/05/26 11:54:18;;;;;;;12.40;4.00;;;21.90;37.20;;;;;;5112157;27;20051;-66
2023/05/26 11:56:45;;;;;;;9.77;3.60;;;21.90;37.80;;;;;;5108883;27;20394;-67
2023/05/26 11:59:17;;;;;;;11.27;3.72;;;21.90;37.30;;;;;;5077703;28;20040;-67
2023/05/26 12:01:43;;;;;;;9.32;3.17;;;22.10;36.60;;;;;;5077928;28;20067;-67
2023/05/26 12:04:09;;;;;;;9.10;3.42;;;22.10;36.90;;;;;;5111463;27;20403;-66
2023/05/26 12:06:40;;;;;;;10.80;3.58;;;22.20;37.10;;;;;;5110072;28;20040;-67
2023/05/26 12:09:24;;;;;;;10.50;3.80;;;22.20;37.10;;;;;;5110839;28;20040;-67
2023/05/26 12:11:52;;;;;;;12.80;3.75;;;22.30;37.40;;;;;;5079695;28;20105;-67
2023/05/26 12:14:18;;;;;;;13.75;3.72;;;22.40;37.10;;;;;;5083234;28;20036;-66
2023/05/26 12:16:50;;;;;;;9.57;3.03;;;22.50;36.60;;;;;;5084540;28;20141;-67
2023/05/26 12:19:18;;;;;;;9.95;3.28;;;22.50;36.00;;;;;;5083196;28;20075;-65
2023/05/26 12:22:02;;;;;;;11.55;3.97;;;22.40;36.10;;;;;;5083592;28;20584;-65
2023/05/26 12:24:29;;;;;;;;;;;22.40;35.30;;;;;;5065978;28;20375;-65
2023/05/26 12:26:55;;;;;;;9.73;3.08;;;22.30;36.00;;;;;;5098040;28;19923;-65
2023/05/26 12:29:20;;;;;;;10.38;3.65;;;22.30;36.00;;;;;;5115931;27;20036;-65
2023/05/26 12:31:53;;;;;;;12.30;3.45;;;22.20;35.70;;;;;;5064619;28;20479;-66
2023/05/26 12:34:23;;;;;;;13.15;3.42;;;22.30;36.90;;;;;;5083199;28;21592;-66
2023/05/26 12:36:50;;;;;;;12.65;4.28;;;22.30;36.70;;;;;;5114079;27;20100;-66
2023/05/26 12:39:17;;;;;;;6.75;2.72;;;22.30;36.20;;;;;;5066225;28;20049;-67
2023/05/26 12:41:45;;;;;;;11.60;4.32;;;22.20;36.90;;;;;;5114110;27;20044;-67